sensor_id;sensor_type;location;lat;lon;timestamp;temperature;humidity
5938;DHT22;2994;51.220;4.412;2023-03-24T00:00:46;15.31;75.80
5938;DHT22;2994;51.220;4.412;2023-03-24T00:03:13;15.16;76.36
5938;DHT22;2994;51.220;4.412;2023-03-24T00:05:41;15.24;76.24
5938;DHT22;2994;51.220;4.412;2023-03-24T00:08:08;15.30;76.09
5938;DHT22;2994;51.220;4.412;2023-03-24T00:10:34;15.15;76.65
5938;DHT22;2994;51.220;4.412;2023-03-24T00:13:01;15.30;76.11
5938;DHT22;2994;51.220;4.412;2023-03-24T00:15:28;15.43;75.60
5938;DHT22;2994;51.220;4.412;2023-03-24T00:17:54;15.45;75.49
5938;DHT22;2994;51.220;4.412;2023-03-24T00:20:23;15.52;75.30
5938;DHT22;2994;51.220;4.412;2023-03-24T00:22:53;15.48;75.47
5938;DHT22;2994;51.220;4.412;2023-03-24T00:25:25;15.38;76.03
5938;DHT22;2994;51.220;4.412;2023-03-24T00:27:58;15.30;76.45
5938;DHT22;2994;51.220;4.412;2023-03-24T00:30:24;15.09;77.44
5938;DHT22;2994;51.220;4.412;2023-03-24T00:32:50;15.18;77.03
5938;DHT22;2994;51.220;4.412;2023-03-24T00:35:16;15.03;77.87
5938;DHT22;2994;51.220;4.412;2023-03-24T00:37:42;15.30;76.77
5938;DHT22;2994;51.220;4.412;2023-03-24T00:40:14;15.33;76.79
5938;DHT22;2994;51.220;4.412;2023-03-24T00:42:41;15.32;76.76
5938;DHT22;2994;51.220;4.412;2023-03-24T00:45:11;15.08;78.04
5938;DHT22;2994;51.220;4.412;2023-03-24T00:47:37;15.30;77.01
5938;DHT22;2994;51.220;4.412;2023-03-24T00:50:07;15.23;77.31
5938;DHT22;2994;51.220;4.412;2023-03-24T00:52:33;15.14;77.50
5938;DHT22;2994;51.220;4.412;2023-03-24T00:55:03;15.37;76.56
5938;DHT22;2994;51.220;4.412;2023-03-24T00:57:30;15.36;76.66
5938;DHT22;2994;51.220;4.412;2023-03-24T01:00:03;15.25;77.13
5938;DHT22;2994;51.220;4.412;2023-03-24T01:02:38;15.32;76.95
5938;DHT22;2994;51.220;4.412;2023-03-24T01:05:05;15.19;77.38
5938;DHT22;2994;51.220;4.412;2023-03-24T01:07:31;15.39;76.70
5938;DHT22;2994;51.220;4.412;2023-03-24T01:09:58;15.39;76.53
5938;DHT22;2994;51.220;4.412;2023-03-24T01:12:32;15.34;76.70
5938;DHT22;2994;51.220;4.412;2023-03-24T01:14:59;15.38;76.58
5938;DHT22;2994;51.220;4.412;2023-03-24T01:17:25;15.45;76.23
5938;DHT22;2994;51.220;4.412;2023-03-24T01:19:52;15.44;76.28
5938;DHT22;2994;51.220;4.412;2023-03-24T01:22:18;15.43;75.92
5938;DHT22;2994;51.220;4.412;2023-03-24T01:24:45;15.53;75.86
5938;DHT22;2994;51.220;4.412;2023-03-24T01:27:11;15.56;75.93
5938;DHT22;2994;51.220;4.412;2023-03-24T01:29:37;15.68;75.60
5938;DHT22;2994;51.220;4.412;2023-03-24T01:32:04;15.65;76.05
5938;DHT22;2994;51.220;4.412;2023-03-24T01:34:29;15.71;75.99
5938;DHT22;2994;51.220;4.412;2023-03-24T01:36:56;15.77;75.75
5938;DHT22;2994;51.220;4.412;2023-03-24T01:39:21;15.71;75.93
5938;DHT22;2994;51.220;4.412;2023-03-24T01:41:47;15.77;75.60
5938;DHT22;2994;51.220;4.412;2023-03-24T01:44:36;15.78;75.65
5938;DHT22;2994;51.220;4.412;2023-03-24T01:47:05;15.72;76.04
5938;DHT22;2994;51.220;4.412;2023-03-24T01:49:37;15.72;76.07
5938;DHT22;2994;51.220;4.412;2023-03-24T01:52:06;15.62;76.69
5938;DHT22;2994;51.220;4.412;2023-03-24T01:54:43;15.48;77.37
5938;DHT22;2994;51.220;4.412;2023-03-24T01:57:21;15.49;76.66
5938;DHT22;2994;51.220;4.412;2023-03-24T01:59:50;15.41;77.07
5938;DHT22;2994;51.220;4.412;2023-03-24T02:02:16;15.19;77.57
5938;DHT22;2994;51.220;4.412;2023-03-24T02:04:45;15.17;77.52
5938;DHT22;2994;51.220;4.412;2023-03-24T02:07:16;15.25;76.12
5938;DHT22;2994;51.220;4.412;2023-03-24T02:09:43;14.98;76.02
5938;DHT22;2994;51.220;4.412;2023-03-24T02:12:09;14.93;74.02
5938;DHT22;2994;51.220;4.412;2023-03-24T02:14:34;14.80;73.52
5938;DHT22;2994;51.220;4.412;2023-03-24T02:17:19;14.84;72.06
5938;DHT22;2994;51.220;4.412;2023-03-24T02:41:26;14.36;69.23
5938;DHT22;2994;51.220;4.412;2023-03-24T02:46:59;13.91;70.32
5938;DHT22;2994;51.220;4.412;2023-03-24T02:49:54;13.88;70.71
5938;DHT22;2994;51.220;4.412;2023-03-24T02:52:20;13.89;71.14
5938;DHT22;2994;51.220;4.412;2023-03-24T03:02:28;14.06;69.49
5938;DHT22;2994;51.220;4.412;2023-03-24T03:05:01;13.76;70.39
5938;DHT22;2994;51.220;4.412;2023-03-24T03:07:31;13.97;69.70
5938;DHT22;2994;51.220;4.412;2023-03-24T03:10:04;13.98;70.11
5938;DHT22;2994;51.220;4.412;2023-03-24T03:12:34;13.97;69.40
5938;DHT22;2994;51.220;4.412;2023-03-24T03:15:05;14.13;69.10
5938;DHT22;2994;51.220;4.412;2023-03-24T03:17:38;14.21;68.99
5938;DHT22;2994;51.220;4.412;2023-03-24T03:20:14;14.19;68.25
5938;DHT22;2994;51.220;4.412;2023-03-24T03:23:10;14.06;68.51
5938;DHT22;2994;51.220;4.412;2023-03-24T03:25:42;14.03;68.85
5938;DHT22;2994;51.220;4.412;2023-03-24T03:28:14;13.95;68.65
5938;DHT22;2994;51.220;4.412;2023-03-24T03:31:03;14.04;68.15
5938;DHT22;2994;51.220;4.412;2023-03-24T03:33:36;14.04;68.07
5938;DHT22;2994;51.220;4.412;2023-03-24T03:41:00;14.11;68.04
5938;DHT22;2994;51.220;4.412;2023-03-24T03:43:27;14.08;68.56
5938;DHT22;2994;51.220;4.412;2023-03-24T03:45:54;14.15;68.32
5938;DHT22;2994;51.220;4.412;2023-03-24T03:48:20;13.94;68.93
5938;DHT22;2994;51.220;4.412;2023-03-24T03:50:46;14.01;68.01
5938;DHT22;2994;51.220;4.412;2023-03-24T03:53:14;13.85;69.20
5938;DHT22;2994;51.220;4.412;2023-03-24T03:55:41;13.89;68.99
5938;DHT22;2994;51.220;4.412;2023-03-24T03:58:07;13.95;68.79
5938;DHT22;2994;51.220;4.412;2023-03-24T04:00:33;14.10;68.32
5938;DHT22;2994;51.220;4.412;2023-03-24T04:05:59;14.04;67.91
5938;DHT22;2994;51.220;4.412;2023-03-24T04:22:19;14.18;68.28
5938;DHT22;2994;51.220;4.412;2023-03-24T04:25:33;14.13;68.87
5938;DHT22;2994;51.220;4.412;2023-03-24T04:33:47;14.13;68.52
5938;DHT22;2994;51.220;4.412;2023-03-24T04:36:37;13.92;69.20
5938;DHT22;2994;51.220;4.412;2023-03-24T04:39:14;14.05;68.93
5938;DHT22;2994;51.220;4.412;2023-03-24T04:41:41;13.94;69.13
5938;DHT22;2994;51.220;4.412;2023-03-24T04:44:09;13.91;69.20
5938;DHT22;2994;51.220;4.412;2023-03-24T04:46:35;13.94;69.04
5938;DHT22;2994;51.220;4.412;2023-03-24T04:49:02;13.90;69.14
5938;DHT22;2994;51.220;4.412;2023-03-24T04:51:30;13.97;68.73
5938;DHT22;2994;51.220;4.412;2023-03-24T04:53:55;13.69;69.70
5938;DHT22;2994;51.220;4.412;2023-03-24T04:58:53;13.83;69.64
5938;DHT22;2994;51.220;4.412;2023-03-24T05:01:18;13.89;69.14
5938;DHT22;2994;51.220;4.412;2023-03-24T05:03:47;13.71;69.92
5938;DHT22;2994;51.220;4.412;2023-03-24T05:06:14;13.73;69.74
5938;DHT22;2994;51.220;4.412;2023-03-24T05:08:39;13.78;69.61
5938;DHT22;2994;51.220;4.412;2023-03-24T05:11:05;13.70;69.86
5938;DHT22;2994;51.220;4.412;2023-03-24T05:13:31;13.76;69.29
5938;DHT22;2994;51.220;4.412;2023-03-24T05:15:56;13.78;69.13
5938;DHT22;2994;51.220;4.412;2023-03-24T05:18:23;13.75;69.10
5938;DHT22;2994;51.220;4.412;2023-03-24T05:20:48;13.67;69.51
5938;DHT22;2994;51.220;4.412;2023-03-24T05:23:14;13.73;69.24
5938;DHT22;2994;51.220;4.412;2023-03-24T05:25:40;13.62;69.70
5938;DHT22;2994;51.220;4.412;2023-03-24T05:28:05;13.76;69.26
5938;DHT22;2994;51.220;4.412;2023-03-24T05:30:31;13.68;69.57
5938;DHT22;2994;51.220;4.412;2023-03-24T05:32:57;13.73;69.11
5938;DHT22;2994;51.220;4.412;2023-03-24T05:35:22;13.71;69.00
5938;DHT22;2994;51.220;4.412;2023-03-24T05:37:49;13.74;69.11
5938;DHT22;2994;51.220;4.412;2023-03-24T05:40:15;13.70;69.11
5938;DHT22;2994;51.220;4.412;2023-03-24T05:42:40;13.60;69.68
5938;DHT22;2994;51.220;4.412;2023-03-24T05:45:07;13.64;69.37
5938;DHT22;2994;51.220;4.412;2023-03-24T05:47:33;13.55;69.73
5938;DHT22;2994;51.220;4.412;2023-03-24T05:49:58;13.62;69.38
5938;DHT22;2994;51.220;4.412;2023-03-24T05:52:24;13.66;69.33
5938;DHT22;2994;51.220;4.412;2023-03-24T05:54:49;13.65;69.13
5938;DHT22;2994;51.220;4.412;2023-03-24T05:57:18;13.67;69.06
5938;DHT22;2994;51.220;4.412;2023-03-24T05:59:44;13.69;69.42
5938;DHT22;2994;51.220;4.412;2023-03-24T06:02:10;13.60;69.73
5938;DHT22;2994;51.220;4.412;2023-03-24T06:04:36;13.69;69.28
5938;DHT22;2994;51.220;4.412;2023-03-24T06:07:02;13.48;70.12
5938;DHT22;2994;51.220;4.412;2023-03-24T06:09:29;13.68;69.50
5938;DHT22;2994;51.220;4.412;2023-03-24T06:12:00;13.75;69.10
5938;DHT22;2994;51.220;4.412;2023-03-24T06:14:26;13.78;68.95
5938;DHT22;2994;51.220;4.412;2023-03-24T06:16:51;13.65;69.33
5938;DHT22;2994;51.220;4.412;2023-03-24T06:19:17;13.63;69.61
5938;DHT22;2994;51.220;4.412;2023-03-24T06:21:47;13.73;68.92
5938;DHT22;2994;51.220;4.412;2023-03-24T06:24:15;13.70;69.04
5938;DHT22;2994;51.220;4.412;2023-03-24T06:26:41;13.70;69.16
5938;DHT22;2994;51.220;4.412;2023-03-24T06:29:09;13.82;68.72
5938;DHT22;2994;51.220;4.412;2023-03-24T06:31:34;13.86;68.73
5938;DHT22;2994;51.220;4.412;2023-03-24T06:34:02;13.90;68.87
5938;DHT22;2994;51.220;4.412;2023-03-24T06:36:28;13.79;69.34
5938;DHT22;2994;51.220;4.412;2023-03-24T06:38:54;13.90;68.97
5938;DHT22;2994;51.220;4.412;2023-03-24T06:41:19;13.82;69.39
5938;DHT22;2994;51.220;4.412;2023-03-24T06:43:44;13.84;69.13
5938;DHT22;2994;51.220;4.412;2023-03-24T06:46:10;13.79;69.27
5938;DHT22;2994;51.220;4.412;2023-03-24T06:48:36;13.78;69.40
5938;DHT22;2994;51.220;4.412;2023-03-24T06:51:02;13.85;68.96
5938;DHT22;2994;51.220;4.412;2023-03-24T06:53:28;13.83;69.23
5938;DHT22;2994;51.220;4.412;2023-03-24T06:55:54;13.89;69.29
5938;DHT22;2994;51.220;4.412;2023-03-24T06:58:19;13.91;69.20
5938;DHT22;2994;51.220;4.412;2023-03-24T07:00:45;13.84;69.28
5938;DHT22;2994;51.220;4.412;2023-03-24T07:03:11;13.76;69.55
5938;DHT22;2994;51.220;4.412;2023-03-24T07:05:42;13.89;69.13
5938;DHT22;2994;51.220;4.412;2023-03-24T07:08:08;13.91;68.97
5938;DHT22;2994;51.220;4.412;2023-03-24T07:10:38;14.00;68.81
5938;DHT22;2994;51.220;4.412;2023-03-24T07:13:07;14.06;68.43
5938;DHT22;2994;51.220;4.412;2023-03-24T07:15:32;14.01;68.68
5938;DHT22;2994;51.220;4.412;2023-03-24T07:17:58;13.96;68.68
5938;DHT22;2994;51.220;4.412;2023-03-24T07:20:24;14.01;68.32
5938;DHT22;2994;51.220;4.412;2023-03-24T07:22:49;14.00;68.48
5938;DHT22;2994;51.220;4.412;2023-03-24T07:25:15;13.98;68.51
5938;DHT22;2994;51.220;4.412;2023-03-24T07:27:45;14.11;68.07
5938;DHT22;2994;51.220;4.412;2023-03-24T07:30:11;14.09;68.36
5938;DHT22;2994;51.220;4.412;2023-03-24T07:32:36;14.23;67.97
5938;DHT22;2994;51.220;4.412;2023-03-24T07:35:05;14.15;68.02
5938;DHT22;2994;51.220;4.412;2023-03-24T07:37:30;14.12;68.10
5938;DHT22;2994;51.220;4.412;2023-03-24T07:39:56;14.28;67.73
5938;DHT22;2994;51.220;4.412;2023-03-24T07:42:21;14.24;67.50
5938;DHT22;2994;51.220;4.412;2023-03-24T07:44:47;14.26;67.10
5938;DHT22;2994;51.220;4.412;2023-03-24T07:47:12;14.23;66.92
5938;DHT22;2994;51.220;4.412;2023-03-24T07:49:37;14.07;67.51
5938;DHT22;2994;51.220;4.412;2023-03-24T07:52:03;14.09;67.47
5938;DHT22;2994;51.220;4.412;2023-03-24T07:54:31;14.21;66.76
5938;DHT22;2994;51.220;4.412;2023-03-24T07:56:58;14.14;66.84
5938;DHT22;2994;51.220;4.412;2023-03-24T07:59:24;14.23;66.31
5938;DHT22;2994;51.220;4.412;2023-03-24T08:01:50;14.26;66.15
5938;DHT22;2994;51.220;4.412;2023-03-24T08:04:15;14.23;66.78
5938;DHT22;2994;51.220;4.412;2023-03-24T08:06:42;14.22;66.81
5938;DHT22;2994;51.220;4.412;2023-03-24T08:09:07;14.03;67.33
5938;DHT22;2994;51.220;4.412;2023-03-24T08:11:33;14.13;66.89
5938;DHT22;2994;51.220;4.412;2023-03-24T08:14:00;14.22;66.91
5938;DHT22;2994;51.220;4.412;2023-03-24T08:16:25;14.38;66.68
5938;DHT22;2994;51.220;4.412;2023-03-24T08:18:51;14.49;66.34
5938;DHT22;2994;51.220;4.412;2023-03-24T08:21:17;14.41;66.19
5938;DHT22;2994;51.220;4.412;2023-03-24T08:23:42;14.40;66.76
5938;DHT22;2994;51.220;4.412;2023-03-24T08:26:08;14.55;65.76
5938;DHT22;2994;51.220;4.412;2023-03-24T08:28:35;14.48;65.59
5938;DHT22;2994;51.220;4.412;2023-03-24T08:31:02;14.39;65.46
5938;DHT22;2994;51.220;4.412;2023-03-24T08:33:27;14.64;64.53
5938;DHT22;2994;51.220;4.412;2023-03-24T08:35:53;14.54;64.81
5938;DHT22;2994;51.220;4.412;2023-03-24T08:38:22;14.55;64.46
5938;DHT22;2994;51.220;4.412;2023-03-24T08:40:56;14.89;63.83
5938;DHT22;2994;51.220;4.412;2023-03-24T08:43:23;14.95;62.47
5938;DHT22;2994;51.220;4.412;2023-03-24T08:45:50;15.02;62.27
5938;DHT22;2994;51.220;4.412;2023-03-24T08:48:16;15.02;62.09
5938;DHT22;2994;51.220;4.412;2023-03-24T08:50:41;14.82;61.92
5938;DHT22;2994;51.220;4.412;2023-03-24T08:53:08;14.78;62.42
5938;DHT22;2994;51.220;4.412;2023-03-24T08:55:35;14.70;62.34
5938;DHT22;2994;51.220;4.412;2023-03-24T08:58:05;14.62;63.12
5938;DHT22;2994;51.220;4.412;2023-03-24T09:00:31;14.73;62.78
5938;DHT22;2994;51.220;4.412;2023-03-24T09:02:56;14.57;63.17
5938;DHT22;2994;51.220;4.412;2023-03-24T09:05:23;14.72;62.56
5938;DHT22;2994;51.220;4.412;2023-03-24T09:07:49;14.83;62.58
5938;DHT22;2994;51.220;4.412;2023-03-24T09:10:16;14.63;62.88
5938;DHT22;2994;51.220;4.412;2023-03-24T09:12:43;14.67;62.97
5938;DHT22;2994;51.220;4.412;2023-03-24T09:15:10;14.66;62.90
5938;DHT22;2994;51.220;4.412;2023-03-24T09:17:37;14.69;62.65
5938;DHT22;2994;51.220;4.412;2023-03-24T09:20:04;14.87;62.47
5938;DHT22;2994;51.220;4.412;2023-03-24T09:22:35;14.86;62.28
5938;DHT22;2994;51.220;4.412;2023-03-24T09:25:00;14.98;62.12
5938;DHT22;2994;51.220;4.412;2023-03-24T09:27:26;15.10;61.48
5938;DHT22;2994;51.220;4.412;2023-03-24T09:29:51;15.04;61.64
5938;DHT22;2994;51.220;4.412;2023-03-24T09:32:18;14.75;62.50
5938;DHT22;2994;51.220;4.412;2023-03-24T09:34:43;14.86;62.69
5938;DHT22;2994;51.220;4.412;2023-03-24T09:37:09;14.91;62.28
5938;DHT22;2994;51.220;4.412;2023-03-24T09:39:35;15.07;62.12
5938;DHT22;2994;51.220;4.412;2023-03-24T09:42:03;15.29;61.00
5938;DHT22;2994;51.220;4.412;2023-03-24T09:44:30;15.25;61.34
5938;DHT22;2994;51.220;4.412;2023-03-24T09:47:04;15.39;60.45
5938;DHT22;2994;51.220;4.412;2023-03-24T09:49:33;15.31;61.08
5938;DHT22;2994;51.220;4.412;2023-03-24T09:52:05;15.27;60.80
5938;DHT22;2994;51.220;4.412;2023-03-24T09:54:36;15.19;60.60
5938;DHT22;2994;51.220;4.412;2023-03-24T09:57:03;15.31;60.67
5938;DHT22;2994;51.220;4.412;2023-03-24T09:59:31;15.55;60.34
5938;DHT22;2994;51.220;4.412;2023-03-24T10:01:57;15.56;60.31
5938;DHT22;2994;51.220;4.412;2023-03-24T10:04:25;15.57;60.20
5938;DHT22;2994;51.220;4.412;2023-03-24T10:07:17;15.83;59.32
5938;DHT22;2994;51.220;4.412;2023-03-24T10:09:40;15.60;59.16
5938;DHT22;2994;51.220;4.412;2023-03-24T10:15:49;15.57;59.25
5938;DHT22;2994;51.220;4.412;2023-03-24T10:24:26;15.48;59.15
5938;DHT22;2994;51.220;4.412;2023-03-24T10:26:30;15.63;59.42
5938;DHT22;2994;51.220;4.412;2023-03-24T10:29:22;15.41;60.30
5938;DHT22;2994;51.220;4.412;2023-03-24T10:31:53;15.62;60.01
5938;DHT22;2994;51.220;4.412;2023-03-24T10:34:21;15.48;59.51
5938;DHT22;2994;51.220;4.412;2023-03-24T10:36:51;15.46;59.97
5938;DHT22;2994;51.220;4.412;2023-03-24T10:39:18;15.25;60.64
5938;DHT22;2994;51.220;4.412;2023-03-24T10:41:43;15.08;61.83
5938;DHT22;2994;51.220;4.412;2023-03-24T10:44:11;15.21;62.63
5938;DHT22;2994;51.220;4.412;2023-03-24T10:46:45;14.96;65.62
5938;DHT22;2994;51.220;4.412;2023-03-24T10:51:47;14.84;66.74
5938;DHT22;2994;51.220;4.412;2023-03-24T10:54:27;14.69;67.00
5938;DHT22;2994;51.220;4.412;2023-03-24T11:05:02;14.23;68.36
5938;DHT22;2994;51.220;4.412;2023-03-24T11:07:47;14.09;70.13
5938;DHT22;2994;51.220;4.412;2023-03-24T11:10:18;14.09;70.29
5938;DHT22;2994;51.220;4.412;2023-03-24T11:15:25;13.92;71.56
5938;DHT22;2994;51.220;4.412;2023-03-24T11:20:34;13.91;71.36
5938;DHT22;2994;51.220;4.412;2023-03-24T11:26:20;13.89;72.00
5938;DHT22;2994;51.220;4.412;2023-03-24T11:28:59;13.92;71.86
5938;DHT22;2994;51.220;4.412;2023-03-24T11:31:30;13.98;71.71
5938;DHT22;2994;51.220;4.412;2023-03-24T11:33:59;14.08;71.45
5938;DHT22;2994;51.220;4.412;2023-03-24T11:39:21;14.23;71.06
5938;DHT22;2994;51.220;4.412;2023-03-24T11:46:55;14.45;69.60
5938;DHT22;2994;51.220;4.412;2023-03-24T11:49:25;14.54;69.89
5938;DHT22;2994;51.220;4.412;2023-03-24T11:51:53;14.58;69.09
5938;DHT22;2994;51.220;4.412;2023-03-24T11:54:23;14.66;68.78
5938;DHT22;2994;51.220;4.412;2023-03-24T11:56:55;14.49;69.13
5938;DHT22;2994;51.220;4.412;2023-03-24T11:59:34;14.73;68.07
5938;DHT22;2994;51.220;4.412;2023-03-24T12:10:03;15.16;66.99
5938;DHT22;2994;51.220;4.412;2023-03-24T12:12:50;15.07;66.90
5938;DHT22;2994;51.220;4.412;2023-03-24T12:18:08;14.94;67.91
5938;DHT22;2994;51.220;4.412;2023-03-24T12:23:32;15.29;67.37
5938;DHT22;2994;51.220;4.412;2023-03-24T12:39:31;15.25;65.72
5938;DHT22;2994;51.220;4.412;2023-03-24T12:56:00;15.49;66.19
5938;DHT22;2994;51.220;4.412;2023-03-24T13:01:24;15.39;66.35
5938;DHT22;2994;51.220;4.412;2023-03-24T13:04:01;15.32;65.97
5938;DHT22;2994;51.220;4.412;2023-03-24T13:06:35;15.41;64.14
5938;DHT22;2994;51.220;4.412;2023-03-24T13:09:12;15.22;64.24
5938;DHT22;2994;51.220;4.412;2023-03-24T13:11:47;14.99;64.27
5938;DHT22;2994;51.220;4.412;2023-03-24T13:14:22;15.16;63.95
5938;DHT22;2994;51.220;4.412;2023-03-24T13:16:49;15.26;64.31
5938;DHT22;2994;51.220;4.412;2023-03-24T13:19:22;15.27;65.57
5938;DHT22;2994;51.220;4.412;2023-03-24T13:21:52;15.28;65.85
5938;DHT22;2994;51.220;4.412;2023-03-24T13:24:19;15.10;67.55
5938;DHT22;2994;51.220;4.412;2023-03-24T13:38:00;15.25;64.39
5938;DHT22;2994;51.220;4.412;2023-03-24T13:40:29;15.15;63.95
5938;DHT22;2994;51.220;4.412;2023-03-24T13:43:19;15.17;63.47
5938;DHT22;2994;51.220;4.412;2023-03-24T13:45:51;15.10;62.99
5938;DHT22;2994;51.220;4.412;2023-03-24T13:51:13;15.34;61.18
5938;DHT22;2994;51.220;4.412;2023-03-24T13:56:40;15.34;59.96
5938;DHT22;2994;51.220;4.412;2023-03-24T13:59:30;15.54;59.90
5938;DHT22;2994;51.220;4.412;2023-03-24T14:09:59;15.65;60.65
5938;DHT22;2994;51.220;4.412;2023-03-24T14:12:25;15.77;60.54
5938;DHT22;2994;51.220;4.412;2023-03-24T14:15:14;15.80;60.28
5938;DHT22;2994;51.220;4.412;2023-03-24T14:17:42;15.78;60.99
5938;DHT22;2994;51.220;4.412;2023-03-24T14:22:40;15.58;60.54
5938;DHT22;2994;51.220;4.412;2023-03-24T14:25:29;15.80;60.44
5938;DHT22;2994;51.220;4.412;2023-03-24T14:28:59;15.53;62.53
5938;DHT22;2994;51.220;4.412;2023-03-24T14:36:40;15.55;64.29
5938;DHT22;2994;51.220;4.412;2023-03-24T14:39:43;15.40;64.76
5938;DHT22;2994;51.220;4.412;2023-03-24T14:45:04;15.97;63.43
5938;DHT22;2994;51.220;4.412;2023-03-24T14:47:33;15.88;64.87
5938;DHT22;2994;51.220;4.412;2023-03-24T14:50:19;16.04;63.58
5938;DHT22;2994;51.220;4.412;2023-03-24T14:53:03;15.92;62.47
5938;DHT22;2994;51.220;4.412;2023-03-24T14:55:29;16.14;60.92
5938;DHT22;2994;51.220;4.412;2023-03-24T14:58:03;16.00;59.34
5938;DHT22;2994;51.220;4.412;2023-03-24T15:00:39;16.03;57.89
5938;DHT22;2994;51.220;4.412;2023-03-24T15:06:13;16.13;58.43
5938;DHT22;2994;51.220;4.412;2023-03-24T15:08:44;16.16;58.45
5938;DHT22;2994;51.220;4.412;2023-03-24T15:11:13;15.93;58.77
5938;DHT22;2994;51.220;4.412;2023-03-24T15:13:42;16.01;58.98
5938;DHT22;2994;51.220;4.412;2023-03-24T15:23:55;16.13;59.71
5938;DHT22;2994;51.220;4.412;2023-03-24T15:26:23;16.21;59.41
5938;DHT22;2994;51.220;4.412;2023-03-24T15:29:00;16.06;59.66
5938;DHT22;2994;51.220;4.412;2023-03-24T15:31:27;15.97;60.28
5938;DHT22;2994;51.220;4.412;2023-03-24T15:37:02;16.11;60.69
5938;DHT22;2994;51.220;4.412;2023-03-24T15:39:36;15.93;61.31
5938;DHT22;2994;51.220;4.412;2023-03-24T15:42:12;16.01;61.11
5938;DHT22;2994;51.220;4.412;2023-03-24T15:44:39;16.01;61.09
5938;DHT22;2994;51.220;4.412;2023-03-24T15:47:22;16.01;62.02
5938;DHT22;2994;51.220;4.412;2023-03-24T15:49:57;15.99;62.50
5938;DHT22;2994;51.220;4.412;2023-03-24T15:52:24;16.03;62.36
5938;DHT22;2994;51.220;4.412;2023-03-24T15:54:51;16.14;63.24
5938;DHT22;2994;51.220;4.412;2023-03-24T15:57:21;16.16;62.31
5938;DHT22;2994;51.220;4.412;2023-03-24T15:59:49;16.18;62.25
5938;DHT22;2994;51.220;4.412;2023-03-24T16:02:28;16.24;63.02
5938;DHT22;2994;51.220;4.412;2023-03-24T16:05:00;16.21;61.29
5938;DHT22;2994;51.220;4.412;2023-03-24T16:07:31;16.28;62.15
5938;DHT22;2994;51.220;4.412;2023-03-24T16:09:59;16.29;61.79
5938;DHT22;2994;51.220;4.412;2023-03-24T16:12:36;16.27;60.71
5938;DHT22;2994;51.220;4.412;2023-03-24T16:15:03;16.28;59.70
5938;DHT22;2994;51.220;4.412;2023-03-24T16:17:30;16.44;58.03
5938;DHT22;2994;51.220;4.412;2023-03-24T16:19:56;16.55;56.23
5938;DHT22;2994;51.220;4.412;2023-03-24T16:22:22;16.55;55.70
5938;DHT22;2994;51.220;4.412;2023-03-24T16:24:47;16.40;54.70
5938;DHT22;2994;51.220;4.412;2023-03-24T16:27:13;16.39;54.84
5938;DHT22;2994;51.220;4.412;2023-03-24T16:29:39;16.30;55.40
5938;DHT22;2994;51.220;4.412;2023-03-24T16:32:05;16.30;55.58
5938;DHT22;2994;51.220;4.412;2023-03-24T16:34:31;16.36;54.74
5938;DHT22;2994;51.220;4.412;2023-03-24T16:36:57;16.33;54.89
5938;DHT22;2994;51.220;4.412;2023-03-24T16:39:24;16.26;53.26
5938;DHT22;2994;51.220;4.412;2023-03-24T16:41:50;16.07;54.02
5938;DHT22;2994;51.220;4.412;2023-03-24T16:44:16;16.11;54.19
5938;DHT22;2994;51.220;4.412;2023-03-24T16:46:43;15.99;56.08
5938;DHT22;2994;51.220;4.412;2023-03-24T16:49:12;16.00;57.03
5938;DHT22;2994;51.220;4.412;2023-03-24T16:51:37;15.93;57.70
5938;DHT22;2994;51.220;4.412;2023-03-24T16:54:03;15.95;58.07
5938;DHT22;2994;51.220;4.412;2023-03-24T16:56:29;15.89;58.64
5938;DHT22;2994;51.220;4.412;2023-03-24T16:58:55;15.88;58.62
5938;DHT22;2994;51.220;4.412;2023-03-24T17:01:30;15.80;59.78
5938;DHT22;2994;51.220;4.412;2023-03-24T17:04:20;15.84;60.94
5938;DHT22;2994;51.220;4.412;2023-03-24T17:06:49;15.72;62.11
5938;DHT22;2994;51.220;4.412;2023-03-24T17:09:16;15.61;62.26
5938;DHT22;2994;51.220;4.412;2023-03-24T17:11:44;15.67;62.36
5938;DHT22;2994;51.220;4.412;2023-03-24T17:14:12;15.62;62.34
5938;DHT22;2994;51.220;4.412;2023-03-24T17:16:43;15.57;62.67
5938;DHT22;2994;51.220;4.412;2023-03-24T17:19:13;15.62;62.86
5938;DHT22;2994;51.220;4.412;2023-03-24T17:21:43;15.58;63.40
5938;DHT22;2994;51.220;4.412;2023-03-24T17:24:10;15.57;63.59
5938;DHT22;2994;51.220;4.412;2023-03-24T17:26:37;15.56;64.08
5938;DHT22;2994;51.220;4.412;2023-03-24T17:29:03;15.49;64.44
5938;DHT22;2994;51.220;4.412;2023-03-24T17:31:29;15.54;64.11
5938;DHT22;2994;51.220;4.412;2023-03-24T17:33:54;15.43;64.37
5938;DHT22;2994;51.220;4.412;2023-03-24T17:36:22;15.37;64.48
5938;DHT22;2994;51.220;4.412;2023-03-24T17:38:47;15.23;64.62
5938;DHT22;2994;51.220;4.412;2023-03-24T17:41:13;15.25;64.65
5938;DHT22;2994;51.220;4.412;2023-03-24T17:43:39;15.33;64.08
5938;DHT22;2994;51.220;4.412;2023-03-24T17:46:04;15.34;64.32
5938;DHT22;2994;51.220;4.412;2023-03-24T17:48:30;15.22;64.53
5938;DHT22;2994;51.220;4.412;2023-03-24T17:50:56;15.14;64.50
5938;DHT22;2994;51.220;4.412;2023-03-24T17:53:23;15.13;64.79
5938;DHT22;2994;51.220;4.412;2023-03-24T17:55:56;15.06;65.03
5938;DHT22;2994;51.220;4.412;2023-03-24T17:58:22;15.12;64.92
5938;DHT22;2994;51.220;4.412;2023-03-24T18:00:48;15.16;65.11
5938;DHT22;2994;51.220;4.412;2023-03-24T18:03:14;14.97;65.75
5938;DHT22;2994;51.220;4.412;2023-03-24T18:05:40;15.00;65.59
5938;DHT22;2994;51.220;4.412;2023-03-24T18:08:05;15.00;65.66
5938;DHT22;2994;51.220;4.412;2023-03-24T18:10:32;15.03;65.19
5938;DHT22;2994;51.220;4.412;2023-03-24T18:13:00;15.01;64.85
5938;DHT22;2994;51.220;4.412;2023-03-24T18:15:26;14.94;65.09
5938;DHT22;2994;51.220;4.412;2023-03-24T18:17:52;14.89;65.12
5938;DHT22;2994;51.220;4.412;2023-03-24T18:20:18;14.78;65.24
5938;DHT22;2994;51.220;4.412;2023-03-24T18:22:43;14.87;64.72
5938;DHT22;2994;51.220;4.412;2023-03-24T18:25:10;14.88;64.49
5938;DHT22;2994;51.220;4.412;2023-03-24T18:27:36;14.81;64.86
5938;DHT22;2994;51.220;4.412;2023-03-24T18:30:03;14.82;64.99
5938;DHT22;2994;51.220;4.412;2023-03-24T18:32:28;14.84;64.64
5938;DHT22;2994;51.220;4.412;2023-03-24T18:34:57;14.68;65.10
5938;DHT22;2994;51.220;4.412;2023-03-24T18:37:25;14.72;65.13
5938;DHT22;2994;51.220;4.412;2023-03-24T18:39:51;14.65;65.43
5938;DHT22;2994;51.220;4.412;2023-03-24T18:42:16;14.62;65.53
5938;DHT22;2994;51.220;4.412;2023-03-24T18:44:42;14.67;65.37
5938;DHT22;2994;51.220;4.412;2023-03-24T18:47:09;14.59;65.50
5938;DHT22;2994;51.220;4.412;2023-03-24T18:49:36;14.53;65.37
5938;DHT22;2994;51.220;4.412;2023-03-24T18:52:01;14.47;65.34
5938;DHT22;2994;51.220;4.412;2023-03-24T18:54:27;14.55;65.11
5938;DHT22;2994;51.220;4.412;2023-03-24T18:56:52;14.55;65.07
5938;DHT22;2994;51.220;4.412;2023-03-24T18:59:18;14.51;65.17
5938;DHT22;2994;51.220;4.412;2023-03-24T19:01:43;14.49;65.01
5938;DHT22;2994;51.220;4.412;2023-03-24T19:04:11;14.44;65.18
5938;DHT22;2994;51.220;4.412;2023-03-24T19:06:37;14.43;65.07
5938;DHT22;2994;51.220;4.412;2023-03-24T19:09:07;14.42;65.05
5938;DHT22;2994;51.220;4.412;2023-03-24T19:11:34;14.48;64.86
5938;DHT22;2994;51.220;4.412;2023-03-24T19:13:59;14.41;65.20
5938;DHT22;2994;51.220;4.412;2023-03-24T19:16:25;14.40;65.14
5938;DHT22;2994;51.220;4.412;2023-03-24T19:18:51;14.32;65.38
5938;DHT22;2994;51.220;4.412;2023-03-24T19:21:18;14.32;65.72
5938;DHT22;2994;51.220;4.412;2023-03-24T19:23:44;14.24;66.17
5938;DHT22;2994;51.220;4.412;2023-03-24T19:26:12;14.26;65.90